Pagrindinis puslapis
METAR-TAF:

METAR-TAF

Oro uostai :

Bisha, Saudo Arabija

platuma: 19-59N, ilguma: 042-37E, Aukštis: 1167 m

Dabartinis oras

Ataskaita buvo paskelbta 58 minutes, ne 15:00 UTC
Vėjas 10 kt iš Vakarų/Pietvakarių
Temperatūra 28°C
Drėgmė 42%
Slėgis 1012 hPa
Matomumas: 8000 m
Giedras dangus

METAR: OEBH 291500Z 25010KT 8000 SKC 28/14 Q1012 NOSIG

Laikas: 18:58 (15:58 UTC)

Prognozė

Ataskaita buvo paskelbta 4 valandos ir 58 minutes, ne 11:00 UTC
Prognozė galioja nuo 29 metu 12 UTC su 30 metu 18 UTC
Vėjas 18 kt iš Vakarų/Pietvakarių
Matomumas: 7000 m
Mažai debesys ne aukštis 3000 ft
Tapsmas
nuo 29 metu 18 UTC su 29 metu 20 UTC
Vėjas 8 kt iš Šiaurės/Šiaurės Vakarų

TAF: OEBH 291100Z 2912/3018 24018KT 7000 FEW030 BECMG 2918/2920 33008KT

Orai ataskaitas ir orų prognozės (METAR, TAF).

turimą stotys yra geltonos ir raudonos taškus žemėlapyje.

Perkelti pele per norėdami pamatyti stoties vardą.

Tada spustelėkite, norėdami matyti oro stebėjimo ir prognozės.

Norėdami pakeisti žemėlapį: spustelėkite ant žalios mygtukų su juodo kryžiaus žemyn,; žalią mygtuką su brūkšneliu, jei norite nutolinti; arba žalių rodyklių gretimoms žemėlapius.


METAR-TAF: